sensor_id;sensor_type;location;lat;lon;timestamp;temperature;humidity
51765;DHT22;37835;53.256;6.456;2024-03-23T00:53:17;5.40;99.90
51765;DHT22;37835;53.256;6.456;2024-03-23T00:55:43;5.60;99.90
51765;DHT22;37835;53.256;6.456;2024-03-23T00:58:09;5.40;99.90
51765;DHT22;37835;53.256;6.456;2024-03-23T01:00:35;5.70;99.90
51765;DHT22;37835;53.256;6.456;2024-03-23T01:03:01;5.30;99.90
51765;DHT22;37835;53.256;6.456;2024-03-23T01:05:26;5.30;99.90
51765;DHT22;37835;53.256;6.456;2024-03-23T01:07:52;5.50;99.90
51765;DHT22;37835;53.256;6.456;2024-03-23T01:10:18;6.10;99.90
51765;DHT22;37835;53.256;6.456;2024-03-23T01:12:43;5.00;99.90
51765;DHT22;37835;53.256;6.456;2024-03-23T01:15:09;5.80;99.90
51765;DHT22;37835;53.256;6.456;2024-03-23T01:17:35;5.10;99.90
51765;DHT22;37835;53.256;6.456;2024-03-23T01:20:01;5.40;99.90
51765;DHT22;37835;53.256;6.456;2024-03-23T01:22:26;5.10;99.90
51765;DHT22;37835;53.256;6.456;2024-03-23T01:24:52;5.20;99.90
51765;DHT22;37835;53.256;6.456;2024-03-23T01:27:17;5.30;99.90
51765;DHT22;37835;53.256;6.456;2024-03-23T01:29:43;5.00;99.90
51765;DHT22;37835;53.256;6.456;2024-03-23T01:32:09;4.60;99.90
51765;DHT22;37835;53.256;6.456;2024-03-23T01:37:01;4.50;99.90
51765;DHT22;37835;53.256;6.456;2024-03-23T01:39:27;4.90;99.90
51765;DHT22;37835;53.256;6.456;2024-03-23T01:41:53;4.90;99.90
51765;DHT22;37835;53.256;6.456;2024-03-23T01:44:18;5.10;99.90
51765;DHT22;37835;53.256;6.456;2024-03-23T01:46:44;4.80;99.90
51765;DHT22;37835;53.256;6.456;2024-03-23T01:49:10;5.20;99.90
51765;DHT22;37835;53.256;6.456;2024-03-23T01:51:37;4.80;99.90
51765;DHT22;37835;53.256;6.456;2024-03-23T01:54:03;4.80;99.90
51765;DHT22;37835;53.256;6.456;2024-03-23T01:56:38;4.80;99.90
51765;DHT22;37835;53.256;6.456;2024-03-23T01:59:05;4.80;99.90
51765;DHT22;37835;53.256;6.456;2024-03-23T02:01:36;5.30;99.90
51765;DHT22;37835;53.256;6.456;2024-03-23T02:04:02;4.70;99.90
51765;DHT22;37835;53.256;6.456;2024-03-23T02:06:28;4.70;99.90
51765;DHT22;37835;53.256;6.456;2024-03-23T02:08:57;4.70;99.90
51765;DHT22;37835;53.256;6.456;2024-03-23T02:11:23;5.00;99.90
51765;DHT22;37835;53.256;6.456;2024-03-23T02:13:49;4.20;99.90
51765;DHT22;37835;53.256;6.456;2024-03-23T02:16:15;5.00;99.90
51765;DHT22;37835;53.256;6.456;2024-03-23T02:18:40;4.50;99.90
51765;DHT22;37835;53.256;6.456;2024-03-23T02:21:06;4.50;99.90
51765;DHT22;37835;53.256;6.456;2024-03-23T02:23:32;4.50;99.90
51765;DHT22;37835;53.256;6.456;2024-03-23T02:25:57;4.90;99.90
51765;DHT22;37835;53.256;6.456;2024-03-23T02:28:23;4.60;99.90
51765;DHT22;37835;53.256;6.456;2024-03-23T02:30:49;4.40;99.90
51765;DHT22;37835;53.256;6.456;2024-03-23T02:33:15;4.40;99.90
51765;DHT22;37835;53.256;6.456;2024-03-23T02:35:42;4.40;99.90
51765;DHT22;37835;53.256;6.456;2024-03-23T02:38:07;5.20;99.90
51765;DHT22;37835;53.256;6.456;2024-03-23T02:40:34;4.80;99.90
51765;DHT22;37835;53.256;6.456;2024-03-23T02:43:02;4.50;99.90
51765;DHT22;37835;53.256;6.456;2024-03-23T02:45:28;4.30;99.90
51765;DHT22;37835;53.256;6.456;2024-03-23T02:47:54;4.40;99.90
51765;DHT22;37835;53.256;6.456;2024-03-23T02:50:20;4.30;99.90
51765;DHT22;37835;53.256;6.456;2024-03-23T02:52:45;4.20;99.90
51765;DHT22;37835;53.256;6.456;2024-03-23T02:55:11;5.00;99.90
51765;DHT22;37835;53.256;6.456;2024-03-23T02:57:37;4.40;99.90
51765;DHT22;37835;53.256;6.456;2024-03-23T03:00:03;1.20;99.90
51765;DHT22;37835;53.256;6.456;2024-03-23T03:02:30;4.30;99.90
51765;DHT22;37835;53.256;6.456;2024-03-23T03:04:56;4.30;99.90
51765;DHT22;37835;53.256;6.456;2024-03-23T03:07:22;4.20;99.90
51765;DHT22;37835;53.256;6.456;2024-03-23T03:12:13;4.30;99.90
51765;DHT22;37835;53.256;6.456;2024-03-23T03:14:39;4.20;99.90
51765;DHT22;37835;53.256;6.456;2024-03-23T03:17:04;4.90;99.90
51765;DHT22;37835;53.256;6.456;2024-03-23T03:19:30;4.20;99.90
51765;DHT22;37835;53.256;6.456;2024-03-23T03:21:56;4.20;99.90
51765;DHT22;37835;53.256;6.456;2024-03-23T03:24:21;4.10;99.90
51765;DHT22;37835;53.256;6.456;2024-03-23T03:26:47;4.00;99.90
51765;DHT22;37835;53.256;6.456;2024-03-23T03:29:13;4.10;99.90
51765;DHT22;37835;53.256;6.456;2024-03-23T03:31:39;4.10;99.90
51765;DHT22;37835;53.256;6.456;2024-03-23T03:34:05;4.10;99.90
51765;DHT22;37835;53.256;6.456;2024-03-23T03:36:30;4.30;99.90
51765;DHT22;37835;53.256;6.456;2024-03-23T03:38:56;4.10;99.90
51765;DHT22;37835;53.256;6.456;2024-03-23T03:41:21;4.10;99.90
51765;DHT22;37835;53.256;6.456;2024-03-23T03:43:47;5.00;99.90
51765;DHT22;37835;53.256;6.456;2024-03-23T03:46:13;4.00;99.90
51765;DHT22;37835;53.256;6.456;2024-03-23T03:48:38;4.00;99.90
51765;DHT22;37835;53.256;6.456;2024-03-23T03:51:04;4.00;99.90
51765;DHT22;37835;53.256;6.456;2024-03-23T03:53:30;4.00;99.90
51765;DHT22;37835;53.256;6.456;2024-03-23T03:55:56;4.80;99.90
51765;DHT22;37835;53.256;6.456;2024-03-23T03:58:25;4.00;99.90
51765;DHT22;37835;53.256;6.456;2024-03-23T04:00:51;3.90;99.90
51765;DHT22;37835;53.256;6.456;2024-03-23T04:03:16;4.00;99.90
51765;DHT22;37835;53.256;6.456;2024-03-23T04:05:42;4.00;99.90
51765;DHT22;37835;53.256;6.456;2024-03-23T04:08:08;4.00;99.90
51765;DHT22;37835;53.256;6.456;2024-03-23T04:10:34;4.20;99.90
51765;DHT22;37835;53.256;6.456;2024-03-23T04:13:00;3.90;99.90
51765;DHT22;37835;53.256;6.456;2024-03-23T04:15:26;4.20;99.90
51765;DHT22;37835;53.256;6.456;2024-03-23T04:17:52;3.90;99.90
51765;DHT22;37835;53.256;6.456;2024-03-23T04:20:18;3.90;99.90
51765;DHT22;37835;53.256;6.456;2024-03-23T04:22:44;4.60;99.90
51765;DHT22;37835;53.256;6.456;2024-03-23T04:25:10;3.90;99.90
51765;DHT22;37835;53.256;6.456;2024-03-23T04:27:39;3.90;99.90
51765;DHT22;37835;53.256;6.456;2024-03-23T04:30:06;3.90;99.90
51765;DHT22;37835;53.256;6.456;2024-03-23T04:32:39;3.90;99.90
51765;DHT22;37835;53.256;6.456;2024-03-23T04:35:05;3.90;99.90
51765;DHT22;37835;53.256;6.456;2024-03-23T04:37:35;4.20;99.90
51765;DHT22;37835;53.256;6.456;2024-03-23T04:40:01;3.80;99.90
51765;DHT22;37835;53.256;6.456;2024-03-23T04:42:27;3.80;99.90
51765;DHT22;37835;53.256;6.456;2024-03-23T04:44:53;3.60;99.90
51765;DHT22;37835;53.256;6.456;2024-03-23T04:47:19;4.30;99.90
51765;DHT22;37835;53.256;6.456;2024-03-23T04:49:44;3.70;99.90
51765;DHT22;37835;53.256;6.456;2024-03-23T04:52:10;3.70;99.90
51765;DHT22;37835;53.256;6.456;2024-03-23T04:54:35;3.70;99.90
51765;DHT22;37835;53.256;6.456;2024-03-23T04:57:01;3.50;99.90
51765;DHT22;37835;53.256;6.456;2024-03-23T04:59:27;3.90;99.90
51765;DHT22;37835;53.256;6.456;2024-03-23T05:01:52;3.90;99.90
51765;DHT22;37835;53.256;6.456;2024-03-23T05:04:18;3.70;99.90
51765;DHT22;37835;53.256;6.456;2024-03-23T05:06:44;3.70;99.90
51765;DHT22;37835;53.256;6.456;2024-03-23T05:09:09;3.70;99.90
51765;DHT22;37835;53.256;6.456;2024-03-23T05:11:40;3.60;99.90
51765;DHT22;37835;53.256;6.456;2024-03-23T05:14:07;3.70;99.90
51765;DHT22;37835;53.256;6.456;2024-03-23T05:16:32;4.50;99.90
51765;DHT22;37835;53.256;6.456;2024-03-23T05:18:58;4.50;99.90
51765;DHT22;37835;53.256;6.456;2024-03-23T05:21:24;3.60;99.90
51765;DHT22;37835;53.256;6.456;2024-03-23T05:23:49;3.60;99.90
51765;DHT22;37835;53.256;6.456;2024-03-23T05:26:16;4.60;99.90
51765;DHT22;37835;53.256;6.456;2024-03-23T05:28:42;4.10;99.90
51765;DHT22;37835;53.256;6.456;2024-03-23T05:31:08;3.60;99.90
51765;DHT22;37835;53.256;6.456;2024-03-23T05:33:36;3.60;99.90
51765;DHT22;37835;53.256;6.456;2024-03-23T05:36:04;3.50;99.90
51765;DHT22;37835;53.256;6.456;2024-03-23T05:38:29;5.10;99.90
51765;DHT22;37835;53.256;6.456;2024-03-23T05:40:59;3.50;99.90
51765;DHT22;37835;53.256;6.456;2024-03-23T05:43:26;3.50;99.90
51765;DHT22;37835;53.256;6.456;2024-03-23T05:45:59;3.50;99.90
51765;DHT22;37835;53.256;6.456;2024-03-23T05:48:26;4.20;99.90
51765;DHT22;37835;53.256;6.456;2024-03-23T05:50:52;3.80;99.90
51765;DHT22;37835;53.256;6.456;2024-03-23T05:53:18;5.20;99.90
51765;DHT22;37835;53.256;6.456;2024-03-23T05:55:48;3.50;99.90
51765;DHT22;37835;53.256;6.456;2024-03-23T05:58:17;3.50;99.90
51765;DHT22;37835;53.256;6.456;2024-03-23T06:00:44;2.30;99.90
51765;DHT22;37835;53.256;6.456;2024-03-23T06:03:10;4.50;99.90
51765;DHT22;37835;53.256;6.456;2024-03-23T06:05:36;5.10;99.90
51765;DHT22;37835;53.256;6.456;2024-03-23T06:08:03;4.30;99.90
51765;DHT22;37835;53.256;6.456;2024-03-23T06:10:28;3.70;99.90
51765;DHT22;37835;53.256;6.456;2024-03-23T06:12:54;3.70;99.90
51765;DHT22;37835;53.256;6.456;2024-03-23T06:15:21;3.80;99.90
51765;DHT22;37835;53.256;6.456;2024-03-23T06:17:48;3.90;99.90
51765;DHT22;37835;53.256;6.456;2024-03-23T06:20:14;3.90;99.90
51765;DHT22;37835;53.256;6.456;2024-03-23T06:22:39;4.00;99.90
51765;DHT22;37835;53.256;6.456;2024-03-23T06:25:06;4.00;99.90
51765;DHT22;37835;53.256;6.456;2024-03-23T06:27:32;4.10;99.90
51765;DHT22;37835;53.256;6.456;2024-03-23T06:29:59;4.40;99.90
51765;DHT22;37835;53.256;6.456;2024-03-23T06:32:24;4.10;99.90
51765;DHT22;37835;53.256;6.456;2024-03-23T06:34:50;3.90;99.90
51765;DHT22;37835;53.256;6.456;2024-03-23T06:37:16;4.20;99.90
51765;DHT22;37835;53.256;6.456;2024-03-23T06:39:41;4.20;99.90
51765;DHT22;37835;53.256;6.456;2024-03-23T06:42:07;4.00;99.90
51765;DHT22;37835;53.256;6.456;2024-03-23T06:44:33;4.80;99.90
51765;DHT22;37835;53.256;6.456;2024-03-23T06:46:59;4.30;99.90
51765;DHT22;37835;53.256;6.456;2024-03-23T06:49:25;4.30;99.90
51765;DHT22;37835;53.256;6.456;2024-03-23T06:51:50;4.40;99.90
51765;DHT22;37835;53.256;6.456;2024-03-23T06:54:20;5.00;99.90
51765;DHT22;37835;53.256;6.456;2024-03-23T06:56:46;4.50;99.90
51765;DHT22;37835;53.256;6.456;2024-03-23T06:59:11;4.80;99.90
51765;DHT22;37835;53.256;6.456;2024-03-23T07:01:37;4.70;99.90
51765;DHT22;37835;53.256;6.456;2024-03-23T07:04:03;4.70;99.90
51765;DHT22;37835;53.256;6.456;2024-03-23T07:06:32;4.80;99.90
51765;DHT22;37835;53.256;6.456;2024-03-23T07:08:58;4.80;99.90
51765;DHT22;37835;53.256;6.456;2024-03-23T07:11:24;4.90;99.90
51765;DHT22;37835;53.256;6.456;2024-03-23T07:13:50;5.10;99.90
51765;DHT22;37835;53.256;6.456;2024-03-23T07:16:17;4.90;99.90
51765;DHT22;37835;53.256;6.456;2024-03-23T07:18:43;5.10;99.90
51765;DHT22;37835;53.256;6.456;2024-03-23T07:21:08;5.40;99.90
51765;DHT22;37835;53.256;6.456;2024-03-23T07:23:34;5.50;99.90
51765;DHT22;37835;53.256;6.456;2024-03-23T07:26:02;5.20;99.90
51765;DHT22;37835;53.256;6.456;2024-03-23T07:28:28;5.30;99.90
51765;DHT22;37835;53.256;6.456;2024-03-23T07:31:11;6.30;99.90
51765;DHT22;37835;53.256;6.456;2024-03-23T07:33:42;5.60;99.90
51765;DHT22;37835;53.256;6.456;2024-03-23T07:36:08;5.30;99.90
51765;DHT22;37835;53.256;6.456;2024-03-23T07:38:34;5.50;99.90
51765;DHT22;37835;53.256;6.456;2024-03-23T07:43:29;5.40;99.90
51765;DHT22;37835;53.256;6.456;2024-03-23T07:45:55;5.50;99.90
51765;DHT22;37835;53.256;6.456;2024-03-23T07:48:21;5.90;99.90
51765;DHT22;37835;53.256;6.456;2024-03-23T07:51:17;6.20;99.90
51765;DHT22;37835;53.256;6.456;2024-03-23T07:53:44;8.20;99.90
51765;DHT22;37835;53.256;6.456;2024-03-23T07:56:11;6.30;99.90
51765;DHT22;37835;53.256;6.456;2024-03-23T07:58:37;6.00;99.90
51765;DHT22;37835;53.256;6.456;2024-03-23T08:01:11;6.00;99.90
51765;DHT22;37835;53.256;6.456;2024-03-23T08:03:38;6.30;99.90
51765;DHT22;37835;53.256;6.456;2024-03-23T08:06:17;6.50;99.90
51765;DHT22;37835;53.256;6.456;2024-03-23T08:08:46;6.40;99.90
51765;DHT22;37835;53.256;6.456;2024-03-23T08:11:12;6.40;99.90
51765;DHT22;37835;53.256;6.456;2024-03-23T08:13:39;6.40;99.90
51765;DHT22;37835;53.256;6.456;2024-03-23T08:16:06;6.10;99.90
51765;DHT22;37835;53.256;6.456;2024-03-23T08:18:32;6.00;99.90
51765;DHT22;37835;53.256;6.456;2024-03-23T08:20:59;5.80;99.90
51765;DHT22;37835;53.256;6.456;2024-03-23T08:23:25;5.80;99.90
51765;DHT22;37835;53.256;6.456;2024-03-23T08:25:52;5.80;99.90
51765;DHT22;37835;53.256;6.456;2024-03-23T08:28:17;5.80;99.90
51765;DHT22;37835;53.256;6.456;2024-03-23T08:30:43;5.80;99.90
51765;DHT22;37835;53.256;6.456;2024-03-23T08:33:09;5.90;99.90
51765;DHT22;37835;53.256;6.456;2024-03-23T08:35:35;6.00;99.90
51765;DHT22;37835;53.256;6.456;2024-03-23T08:38:00;6.10;99.90
51765;DHT22;37835;53.256;6.456;2024-03-23T08:40:26;6.20;99.90
51765;DHT22;37835;53.256;6.456;2024-03-23T08:42:52;6.40;99.90
51765;DHT22;37835;53.256;6.456;2024-03-23T08:45:17;6.40;99.90
51765;DHT22;37835;53.256;6.456;2024-03-23T08:47:43;6.60;99.90
51765;DHT22;37835;53.256;6.456;2024-03-23T08:50:09;6.70;99.90
51765;DHT22;37835;53.256;6.456;2024-03-23T08:52:34;6.80;99.90
51765;DHT22;37835;53.256;6.456;2024-03-23T08:55:00;7.00;99.90
51765;DHT22;37835;53.256;6.456;2024-03-23T08:57:26;7.10;99.90
51765;DHT22;37835;53.256;6.456;2024-03-23T08:59:52;7.10;99.90
51765;DHT22;37835;53.256;6.456;2024-03-23T09:02:18;7.20;99.90
51765;DHT22;37835;53.256;6.456;2024-03-23T09:04:44;7.20;99.90
51765;DHT22;37835;53.256;6.456;2024-03-23T09:07:10;6.40;99.90
51765;DHT22;37835;53.256;6.456;2024-03-23T09:09:38;7.40;99.90
51765;DHT22;37835;53.256;6.456;2024-03-23T09:12:04;7.40;99.90
51765;DHT22;37835;53.256;6.456;2024-03-23T09:14:30;7.50;99.90
51765;DHT22;37835;53.256;6.456;2024-03-23T09:16:55;7.70;99.90
51765;DHT22;37835;53.256;6.456;2024-03-23T09:19:21;7.70;99.90
51765;DHT22;37835;53.256;6.456;2024-03-23T09:21:46;7.90;99.90
51765;DHT22;37835;53.256;6.456;2024-03-23T09:24:12;8.00;99.90
51765;DHT22;37835;53.256;6.456;2024-03-23T09:26:38;7.80;99.90
51765;DHT22;37835;53.256;6.456;2024-03-23T09:29:03;7.60;99.90
51765;DHT22;37835;53.256;6.456;2024-03-23T09:31:29;7.40;99.90
51765;DHT22;37835;53.256;6.456;2024-03-23T09:33:57;5.80;99.90
51765;DHT22;37835;53.256;6.456;2024-03-23T09:36:23;7.00;99.90
51765;DHT22;37835;53.256;6.456;2024-03-23T09:38:49;6.80;99.90
51765;DHT22;37835;53.256;6.456;2024-03-23T09:41:15;6.70;99.90
51765;DHT22;37835;53.256;6.456;2024-03-23T09:43:41;7.80;99.90
51765;DHT22;37835;53.256;6.456;2024-03-23T09:46:07;6.60;99.90
51765;DHT22;37835;53.256;6.456;2024-03-23T09:48:33;6.60;99.90
51765;DHT22;37835;53.256;6.456;2024-03-23T09:50:59;6.60;99.90
51765;DHT22;37835;53.256;6.456;2024-03-23T09:53:25;6.70;99.90
51765;DHT22;37835;53.256;6.456;2024-03-23T09:55:50;6.70;99.90
51765;DHT22;37835;53.256;6.456;2024-03-23T09:58:17;6.80;99.90
51765;DHT22;37835;53.256;6.456;2024-03-23T10:00:44;6.80;99.90
51765;DHT22;37835;53.256;6.456;2024-03-23T10:03:09;6.80;99.90
51765;DHT22;37835;53.256;6.456;2024-03-23T10:05:37;6.70;99.90
51765;DHT22;37835;53.256;6.456;2024-03-23T10:10:41;6.80;99.90
51765;DHT22;37835;53.256;6.456;2024-03-23T10:13:06;7.30;99.90
51765;DHT22;37835;53.256;6.456;2024-03-23T10:15:36;7.10;99.90
51765;DHT22;37835;53.256;6.456;2024-03-23T10:18:18;9.10;99.90
51765;DHT22;37835;53.256;6.456;2024-03-23T10:23:31;7.70;99.90
51765;DHT22;37835;53.256;6.456;2024-03-23T10:31:17;8.10;99.90
51765;DHT22;37835;53.256;6.456;2024-03-23T10:33:47;8.20;99.90
51765;DHT22;37835;53.256;6.456;2024-03-23T10:36:13;8.30;99.90
51765;DHT22;37835;53.256;6.456;2024-03-23T10:38:43;8.40;99.90
51765;DHT22;37835;53.256;6.456;2024-03-23T10:41:10;8.50;99.90
51765;DHT22;37835;53.256;6.456;2024-03-23T10:43:37;8.60;99.90
51765;DHT22;37835;53.256;6.456;2024-03-23T10:46:03;8.70;99.90
51765;DHT22;37835;53.256;6.456;2024-03-23T10:48:30;8.70;99.90
51765;DHT22;37835;53.256;6.456;2024-03-23T10:50:55;8.80;99.90
51765;DHT22;37835;53.256;6.456;2024-03-23T10:53:26;9.40;99.90
51765;DHT22;37835;53.256;6.456;2024-03-23T10:55:52;9.00;99.90
51765;DHT22;37835;53.256;6.456;2024-03-23T10:58:46;8.80;99.90
51765;DHT22;37835;53.256;6.456;2024-03-23T11:01:12;8.70;99.90
51765;DHT22;37835;53.256;6.456;2024-03-23T11:03:39;8.20;99.90
51765;DHT22;37835;53.256;6.456;2024-03-23T11:06:06;7.90;99.90
51765;DHT22;37835;53.256;6.456;2024-03-23T11:08:38;7.80;99.90
51765;DHT22;37835;53.256;6.456;2024-03-23T11:13:39;7.70;99.90
51765;DHT22;37835;53.256;6.456;2024-03-23T11:16:27;7.70;99.90
51765;DHT22;37835;53.256;6.456;2024-03-23T11:25:16;7.90;99.90
51765;DHT22;37835;53.256;6.456;2024-03-23T11:27:46;7.90;99.90
51765;DHT22;37835;53.256;6.456;2024-03-23T11:30:12;7.80;99.90
51765;DHT22;37835;53.256;6.456;2024-03-23T11:32:38;7.70;99.90
51765;DHT22;37835;53.256;6.456;2024-03-23T11:35:04;7.80;99.90
51765;DHT22;37835;53.256;6.456;2024-03-23T11:37:30;7.70;99.90
51765;DHT22;37835;53.256;6.456;2024-03-23T11:39:56;7.70;99.90
51765;DHT22;37835;53.256;6.456;2024-03-23T11:42:21;8.10;99.90
51765;DHT22;37835;53.256;6.456;2024-03-23T11:44:47;7.80;99.90
51765;DHT22;37835;53.256;6.456;2024-03-23T11:47:13;7.80;99.90
51765;DHT22;37835;53.256;6.456;2024-03-23T11:49:38;7.80;99.90
51765;DHT22;37835;53.256;6.456;2024-03-23T11:52:06;7.80;99.90
51765;DHT22;37835;53.256;6.456;2024-03-23T11:54:32;7.70;99.90
51765;DHT22;37835;53.256;6.456;2024-03-23T11:57:00;7.70;99.90
51765;DHT22;37835;53.256;6.456;2024-03-23T11:59:36;7.80;99.90
51765;DHT22;37835;53.256;6.456;2024-03-23T12:02:12;7.80;99.90
51765;DHT22;37835;53.256;6.456;2024-03-23T12:04:41;8.00;99.90
51765;DHT22;37835;53.256;6.456;2024-03-23T12:07:12;8.00;99.90
51765;DHT22;37835;53.256;6.456;2024-03-23T12:09:39;8.00;99.90
51765;DHT22;37835;53.256;6.456;2024-03-23T12:12:14;8.10;99.90
51765;DHT22;37835;53.256;6.456;2024-03-23T12:14:44;8.20;99.90
51765;DHT22;37835;53.256;6.456;2024-03-23T12:17:10;7.60;99.90
51765;DHT22;37835;53.256;6.456;2024-03-23T12:19:36;7.30;99.90
51765;DHT22;37835;53.256;6.456;2024-03-23T12:22:03;7.10;99.90
51765;DHT22;37835;53.256;6.456;2024-03-23T12:24:29;6.70;99.90
51765;DHT22;37835;53.256;6.456;2024-03-23T12:26:59;6.60;99.90
51765;DHT22;37835;53.256;6.456;2024-03-23T12:29:27;6.20;99.90
51765;DHT22;37835;53.256;6.456;2024-03-23T12:31:53;6.70;99.90
51765;DHT22;37835;53.256;6.456;2024-03-23T12:34:18;6.50;99.90
51765;DHT22;37835;53.256;6.456;2024-03-23T12:36:44;6.50;99.90
51765;DHT22;37835;53.256;6.456;2024-03-23T12:39:09;6.60;99.90
51765;DHT22;37835;53.256;6.456;2024-03-23T12:41:35;6.70;99.90
51765;DHT22;37835;53.256;6.456;2024-03-23T12:44:01;6.90;99.90
51765;DHT22;37835;53.256;6.456;2024-03-23T12:46:26;6.90;99.90
51765;DHT22;37835;53.256;6.456;2024-03-23T12:48:52;7.00;99.90
51765;DHT22;37835;53.256;6.456;2024-03-23T12:51:17;7.20;99.90
51765;DHT22;37835;53.256;6.456;2024-03-23T12:53:43;7.00;99.90
51765;DHT22;37835;53.256;6.456;2024-03-23T12:56:12;7.00;99.90
51765;DHT22;37835;53.256;6.456;2024-03-23T12:58:37;6.90;99.90
51765;DHT22;37835;53.256;6.456;2024-03-23T13:01:03;6.90;99.90
51765;DHT22;37835;53.256;6.456;2024-03-23T13:03:29;7.00;99.90
51765;DHT22;37835;53.256;6.456;2024-03-23T13:05:54;7.10;99.90
51765;DHT22;37835;53.256;6.456;2024-03-23T13:08:20;7.30;99.90
51765;DHT22;37835;53.256;6.456;2024-03-23T13:10:45;6.60;99.90
51765;DHT22;37835;53.256;6.456;2024-03-23T13:13:12;7.50;99.90
51765;DHT22;37835;53.256;6.456;2024-03-23T13:15:38;7.90;99.90
51765;DHT22;37835;53.256;6.456;2024-03-23T13:18:03;7.80;99.90
51765;DHT22;37835;53.256;6.456;2024-03-23T13:20:29;7.60;99.90
51765;DHT22;37835;53.256;6.456;2024-03-23T13:22:55;7.70;99.90
51765;DHT22;37835;53.256;6.456;2024-03-23T13:25:20;7.60;99.90
51765;DHT22;37835;53.256;6.456;2024-03-23T13:27:46;7.60;99.90
51765;DHT22;37835;53.256;6.456;2024-03-23T13:30:13;7.60;99.90
51765;DHT22;37835;53.256;6.456;2024-03-23T13:32:38;7.60;99.90
51765;DHT22;37835;53.256;6.456;2024-03-23T13:35:04;7.70;99.90
51765;DHT22;37835;53.256;6.456;2024-03-23T13:37:31;7.50;99.90
51765;DHT22;37835;53.256;6.456;2024-03-23T13:39:57;7.40;99.90
51765;DHT22;37835;53.256;6.456;2024-03-23T13:42:23;7.30;99.90
51765;DHT22;37835;53.256;6.456;2024-03-23T13:44:51;7.30;99.90
51765;DHT22;37835;53.256;6.456;2024-03-23T13:47:17;7.10;99.90
51765;DHT22;37835;53.256;6.456;2024-03-23T13:49:42;7.00;99.90
51765;DHT22;37835;53.256;6.456;2024-03-23T13:52:08;7.30;99.90
51765;DHT22;37835;53.256;6.456;2024-03-23T13:57:00;7.20;99.90
51765;DHT22;37835;53.256;6.456;2024-03-23T13:59:25;7.20;99.90
51765;DHT22;37835;53.256;6.456;2024-03-23T14:01:51;7.40;99.90
51765;DHT22;37835;53.256;6.456;2024-03-23T14:04:17;7.50;99.90
51765;DHT22;37835;53.256;6.456;2024-03-23T14:06:45;7.60;99.90
51765;DHT22;37835;53.256;6.456;2024-03-23T14:09:14;7.60;99.90
51765;DHT22;37835;53.256;6.456;2024-03-23T14:11:41;7.50;99.90
51765;DHT22;37835;53.256;6.456;2024-03-23T14:14:08;5.60;99.90
51765;DHT22;37835;53.256;6.456;2024-03-23T14:16:34;7.30;99.90
51765;DHT22;37835;53.256;6.456;2024-03-23T14:19:00;7.20;99.90
51765;DHT22;37835;53.256;6.456;2024-03-23T14:21:28;7.20;99.90
51765;DHT22;37835;53.256;6.456;2024-03-23T14:23:54;7.20;99.90
51765;DHT22;37835;53.256;6.456;2024-03-23T14:26:20;7.50;99.90
51765;DHT22;37835;53.256;6.456;2024-03-23T14:28:46;7.40;99.90
51765;DHT22;37835;53.256;6.456;2024-03-23T14:31:11;7.50;99.90
51765;DHT22;37835;53.256;6.456;2024-03-23T14:33:38;7.60;99.90
51765;DHT22;37835;53.256;6.456;2024-03-23T14:36:06;7.70;99.90
51765;DHT22;37835;53.256;6.456;2024-03-23T14:38:32;7.80;99.90
51765;DHT22;37835;53.256;6.456;2024-03-23T14:41:01;7.70;99.90
51765;DHT22;37835;53.256;6.456;2024-03-23T14:43:29;7.70;99.90
51765;DHT22;37835;53.256;6.456;2024-03-23T14:46:11;7.80;99.90
51765;DHT22;37835;53.256;6.456;2024-03-23T14:48:42;7.80;99.90
51765;DHT22;37835;53.256;6.456;2024-03-23T14:51:08;7.90;99.90
51765;DHT22;37835;53.256;6.456;2024-03-23T14:53:39;8.00;99.90
51765;DHT22;37835;53.256;6.456;2024-03-23T14:56:07;8.00;99.90
51765;DHT22;37835;53.256;6.456;2024-03-23T14:58:33;7.20;99.90
51765;DHT22;37835;53.256;6.456;2024-03-23T15:01:01;8.10;99.90
51765;DHT22;37835;53.256;6.456;2024-03-23T15:03:27;8.00;99.90
51765;DHT22;37835;53.256;6.456;2024-03-23T15:05:57;8.00;99.90
51765;DHT22;37835;53.256;6.456;2024-03-23T15:08:23;8.00;99.90
51765;DHT22;37835;53.256;6.456;2024-03-23T15:10:49;8.00;99.90
51765;DHT22;37835;53.256;6.456;2024-03-23T15:13:15;8.10;99.90
51765;DHT22;37835;53.256;6.456;2024-03-23T15:15:42;8.00;99.90
51765;DHT22;37835;53.256;6.456;2024-03-23T15:18:13;8.10;99.90
51765;DHT22;37835;53.256;6.456;2024-03-23T15:20:41;8.00;99.90
51765;DHT22;37835;53.256;6.456;2024-03-23T15:23:13;8.00;99.90
51765;DHT22;37835;53.256;6.456;2024-03-23T15:25:39;7.80;99.90
51765;DHT22;37835;53.256;6.456;2024-03-23T15:28:05;7.90;99.90
51765;DHT22;37835;53.256;6.456;2024-03-23T15:30:30;7.90;99.90
51765;DHT22;37835;53.256;6.456;2024-03-23T15:32:56;7.90;99.90
51765;DHT22;37835;53.256;6.456;2024-03-23T15:35:22;8.00;99.90
51765;DHT22;37835;53.256;6.456;2024-03-23T15:37:49;8.10;99.90
51765;DHT22;37835;53.256;6.456;2024-03-23T15:40:15;8.20;99.90
51765;DHT22;37835;53.256;6.456;2024-03-23T15:42:41;8.30;99.90
51765;DHT22;37835;53.256;6.456;2024-03-23T15:45:07;8.40;99.90
51765;DHT22;37835;53.256;6.456;2024-03-23T15:47:35;8.40;99.90
51765;DHT22;37835;53.256;6.456;2024-03-23T15:50:01;8.50;99.90
51765;DHT22;37835;53.256;6.456;2024-03-23T15:52:26;8.60;99.90
51765;DHT22;37835;53.256;6.456;2024-03-23T15:54:52;8.70;99.90
51765;DHT22;37835;53.256;6.456;2024-03-23T15:57:21;8.60;99.90
51765;DHT22;37835;53.256;6.456;2024-03-23T15:59:46;8.70;99.90
51765;DHT22;37835;53.256;6.456;2024-03-23T16:02:15;8.80;99.90
51765;DHT22;37835;53.256;6.456;2024-03-23T16:04:42;8.80;99.90
51765;DHT22;37835;53.256;6.456;2024-03-23T16:07:10;8.70;99.90
51765;DHT22;37835;53.256;6.456;2024-03-23T16:09:36;8.60;99.90
51765;DHT22;37835;53.256;6.456;2024-03-23T16:12:03;8.50;99.90
51765;DHT22;37835;53.256;6.456;2024-03-23T16:14:29;8.50;99.90
51765;DHT22;37835;53.256;6.456;2024-03-23T16:16:54;8.40;99.90
51765;DHT22;37835;53.256;6.456;2024-03-23T16:19:20;8.50;99.90
51765;DHT22;37835;53.256;6.456;2024-03-23T16:21:48;8.60;99.90
51765;DHT22;37835;53.256;6.456;2024-03-23T16:24:13;8.60;99.90
51765;DHT22;37835;53.256;6.456;2024-03-23T16:26:39;8.40;99.90
51765;DHT22;37835;53.256;6.456;2024-03-23T16:29:06;8.50;99.90
51765;DHT22;37835;53.256;6.456;2024-03-23T16:31:34;8.30;99.90
51765;DHT22;37835;53.256;6.456;2024-03-23T16:34:00;8.20;99.90
51765;DHT22;37835;53.256;6.456;2024-03-23T16:36:25;8.00;99.90
51765;DHT22;37835;53.256;6.456;2024-03-23T16:38:51;10.90;99.90
51765;DHT22;37835;53.256;6.456;2024-03-23T16:41:17;7.80;99.90
51765;DHT22;37835;53.256;6.456;2024-03-23T16:43:43;7.70;99.90
51765;DHT22;37835;53.256;6.456;2024-03-23T16:46:11;7.70;99.90
51765;DHT22;37835;53.256;6.456;2024-03-23T16:48:39;7.60;99.90
51765;DHT22;37835;53.256;6.456;2024-03-23T16:51:06;7.60;99.90
51765;DHT22;37835;53.256;6.456;2024-03-23T16:53:33;7.60;99.90
51765;DHT22;37835;53.256;6.456;2024-03-23T16:55:59;7.60;99.90
51765;DHT22;37835;53.256;6.456;2024-03-23T16:58:26;7.50;99.90
51765;DHT22;37835;53.256;6.456;2024-03-23T17:00:52;7.60;99.90
51765;DHT22;37835;53.256;6.456;2024-03-23T17:03:25;7.60;99.90